HomeShort term forecast

Short term forecast

Graphical weather forecast for the next 48 hours for Montreal:
Short term forecast
This weather forecast is automatically refreshed every 3 hours.

Hourly Experimental Forecast for the next 48 hours

Overall summary: Mostly cloudy throughout the day and breezy starting tomorrow morning, continuing until tomorrow evening.

 Date & Hour   Temp   Feel   Baro   Hum   Speed & Bearing   Wind Gust   Precip.%   Precip.   Visibility   Cloud cover   Conditions 
 19/10/2018 - 19:00  13.7°C  13.7°C  1006.6 hPa  61%  18.9 km/h   49.2 km/h  0%  --  16.1km  77%  Mostly Cloudy 
 19/10/2018 - 20:00  13.0°C  13.0°C  1006.1 hPa  63%  20.4 km/h   55.0 km/h  0%  --  16.1km  88%  Mostly Cloudy 
 19/10/2018 - 21:00  12.8°C  12.8°C  1005.3 hPa  63%  21.1 km/h   53.0 km/h  0%  --  16.1km  81%  Mostly Cloudy 
 19/10/2018 - 22:00  12.7°C  12.7°C  1004.9 hPa  62%  21.2 km/h   55.3 km/h  0%  --  16.1km  84%  Mostly Cloudy 
 19/10/2018 - 23:00  12.6°C  12.6°C  1004.0 hPa  60%  22.2 km/h   57.6 km/h  2%  0.02 mm/h  16.1km  91%  Mostly Cloudy 
 20/10/2018 - 00:00  12.1°C  12.1°C  1002.9 hPa  61%  22.5 km/h   55.8 km/h  2%  0.01 mm/h  16.1km  89%  Mostly Cloudy 
 20/10/2018 - 01:00  11.8°C  11.8°C  1001.8 hPa  59%  23.0 km/h   54.0 km/h  4%  0.03 mm/h  16.1km  90%  Mostly Cloudy 
 20/10/2018 - 02:00  11.4°C  11.4°C  1000.7 hPa  59%  23.4 km/h   53.9 km/h  10%  0.05 mm/h  16.1km  88%  Mostly Cloudy 
 20/10/2018 - 03:00  10.9°C  10.9°C  999.3 hPa  61%  23.8 km/h   53.2 km/h  12%  0.06 mm/h  16.1km  87%  Mostly Cloudy 
 20/10/2018 - 04:00  10.2°C  10.2°C  998.0 hPa  64%  24.9 km/h   54.1 km/h  14%  0.07 mm/h  16.1km  93%  Breezy and Mostly Cloudy 
 20/10/2018 - 05:00  9.8°C  6.6°C  996.8 hPa  68%  26.3 km/h   57.7 km/h  19%  0.09 mm/h  16.1km  96%  Breezy and Overcast 
 20/10/2018 - 06:00  9.2°C  5.7°C  995.9 hPa  75%  27.1 km/h   60.5 km/h  37%  0.18 mm/h  16.1km  100%  Breezy and Overcast 
 20/10/2018 - 07:00  9.2°C  5.7°C  995.2 hPa  80%  27.8 km/h   62.0 km/h  57%  0.81 mm/h  15.1km  95%  Light Rain and Breezy 
 20/10/2018 - 08:00  8.6°C  4.8°C  994.8 hPa  87%  29.7 km/h   63.3 km/h  62%  0.62 mm/h  15.6km  100%  Windy and Overcast 
 20/10/2018 - 09:00  9.3°C  5.6°C  995.0 hPa  86%  31.6 km/h   60.4 km/h  49%  0.47 mm/h  16.1km  96%  Breezy and Overcast 
 20/10/2018 - 10:00  10.4°C  10.4°C  995.5 hPa  82%  33.8 km/h   55.8 km/h  37%  0.25 mm/h  16.1km  89%  Breezy and Mostly Cloudy 
 20/10/2018 - 11:00  11.4°C  11.4°C  995.9 hPa  77%  35.1 km/h   51.9 km/h  26%  0.15 mm/h  16.1km  83%  Breezy and Mostly Cloudy 
 20/10/2018 - 12:00  12.0°C  12.0°C  996.2 hPa  71%  34.9 km/h   49.4 km/h  22%  0.12 mm/h  16.1km  78%  Breezy and Mostly Cloudy 
 20/10/2018 - 13:00  11.9°C  11.9°C  996.5 hPa  67%  33.9 km/h   47.3 km/h  23%  0.13 mm/h  16.1km  74%  Breezy and Mostly Cloudy 
 20/10/2018 - 14:00  11.8°C  11.8°C  996.7 hPa  64%  32.8 km/h   46.0 km/h  21%  0.16 mm/h  16.1km  68%  Breezy and Mostly Cloudy 
 20/10/2018 - 15:00  11.3°C  11.3°C  996.9 hPa  64%  31.7 km/h   46.4 km/h  23%  0.22 mm/h  16.1km  60%  Breezy and Mostly Cloudy 
 20/10/2018 - 16:00  10.6°C  10.6°C  997.2 hPa  65%  30.2 km/h   47.8 km/h  29%  0.33 mm/h  16.1km  51%  Breezy and Partly Cloudy 
 20/10/2018 - 17:00  10.1°C  10.1°C  997.6 hPa  66%  28.3 km/h   48.3 km/h  34%  0.36 mm/h  16.1km  42%  Breezy and Partly Cloudy 
 20/10/2018 - 18:00  9.2°C  6.0°C  998.3 hPa  67%  24.7 km/h   47.4 km/h  27%  0.21 mm/h  16.1km  34%  Partly Cloudy 
 20/10/2018 - 19:00  8.3°C  5.0°C  999.2 hPa  70%  21.7 km/h   45.6 km/h  15%  0.07 mm/h  16.1km  26%  Partly Cloudy 
 20/10/2018 - 20:00  7.3°C  4.0°C  1000.0 hPa  72%  20.1 km/h   43.3 km/h  10%  0.03 mm/h  16.1km  21%  Clear 
 20/10/2018 - 21:00  6.6°C  3.2°C  1000.7 hPa  73%  19.1 km/h   40.2 km/h  5%  0.02 mm/h  16.1km  20%  Clear 
 20/10/2018 - 22:00  5.9°C  2.4°C  1001.3 hPa  74%  18.9 km/h   36.7 km/h  4%  0.01 mm/h  16.1km  22%  Clear 
 20/10/2018 - 23:00  5.3°C  1.5°C  1001.9 hPa  75%  19.0 km/h   34.4 km/h  4%  0.01 mm/h  16.1km  25%  Partly Cloudy 
 21/10/2018 - 00:00  4.5°C  0.6°C  1002.4 hPa  75%  18.8 km/h   34.3 km/h  4%  0.01 mm/h  16.1km  32%  Partly Cloudy 
 21/10/2018 - 01:00  3.7°C  -0.5°C  1003.0 hPa  73%  19.8 km/h   35.5 km/h  4%  0.02 mm/h  16.1km  42%  Partly Cloudy 
 21/10/2018 - 02:00  3.0°C  -1.5°C  1003.5 hPa  72%  20.9 km/h   36.8 km/h  5%  0.03 mm/h  16.1km  48%  Partly Cloudy 
 21/10/2018 - 03:00  2.5°C  -2.3°C  1004.1 hPa  72%  21.4 km/h   37.8 km/h  4%  0.03 mm/h  16.1km  46%  Partly Cloudy 
 21/10/2018 - 04:00  1.8°C  -3.2°C  1004.8 hPa  72%  21.8 km/h   38.8 km/h  3%  0.01 mm/h  16.1km  42%  Partly Cloudy 
 21/10/2018 - 05:00  1.2°C  -4.1°C  1005.5 hPa  73%  22.2 km/h   39.4 km/h  0%  --  16.1km  39%  Partly Cloudy 
 21/10/2018 - 06:00  0.1°C  -5.4°C  1006.4 hPa  75%  22.4 km/h   39.8 km/h  0%  --  16.1km  41%  Partly Cloudy 
 21/10/2018 - 07:00  -0.5°C  -6.2°C  1007.4 hPa  75%  22.6 km/h   39.7 km/h  2%  0.01 mm/h  16.1km  45%  Partly Cloudy 
 21/10/2018 - 08:00  -0.7°C  -6.5°C  1008.4 hPa  73%  23.0 km/h   39.3 km/h  4%  0.01 mm/h  16.1km  47%  Partly Cloudy 
 21/10/2018 - 09:00  -0.2°C  -6.0°C  1009.4 hPa  66%  23.9 km/h   38.0 km/h  3%  0.01 mm/h  16.1km  46%  Partly Cloudy 
 21/10/2018 - 10:00  0.8°C  -4.9°C  1010.4 hPa  58%  25.3 km/h   36.1 km/h  0%  --  16.1km  43%  Breezy and Partly Cloudy 
 21/10/2018 - 11:00  2.0°C  -3.4°C  1011.1 hPa  50%  26.4 km/h   34.8 km/h  0%  --  16.1km  38%  Breezy and Partly Cloudy 
 21/10/2018 - 12:00  3.0°C  -2.2°C  1011.4 hPa  45%  26.8 km/h   34.7 km/h  0%  --  16.1km  33%  Breezy and Partly Cloudy 
 21/10/2018 - 13:00  4.3°C  -0.6°C  1011.5 hPa  40%  26.8 km/h   35.3 km/h  0%  --  16.1km  27%  Partly Cloudy 
 21/10/2018 - 14:00  5.0°C  0.4°C  1011.7 hPa  37%  26.7 km/h   35.6 km/h  0%  --  16.1km  20%  Clear 
 21/10/2018 - 15:00  5.3°C  0.7°C  1012.0 hPa  36%  26.6 km/h   35.3 km/h  0%  --  16.1km  13%  Clear 
 21/10/2018 - 16:00  5.1°C  0.5°C  1012.5 hPa  37%  26.3 km/h   34.7 km/h  0%  --  16.1km  5%  Clear 
 21/10/2018 - 17:00  4.7°C  0.2°C  1013.1 hPa  38%  25.3 km/h   34.1 km/h  0%  --  16.1km  0%  Clear 
 21/10/2018 - 18:00  4.0°C  -0.6°C  1014.0 hPa  40%  23.3 km/h   34.0 km/h  0%  --  16.1km  0%  Clear 
Test

 

Past weather and reports

Past weatherFind in this section the past weather conditions, weather archive, graphics, reports and statistics.

Current conditions

Current weather condition for MontrealAll you need to know about the current weather conditions for Montreal. Weather data is updated every 10 minutes.

Weather forecast

Current Montreal weatherSince 2004, celinium.com website has provided accurate weather forecast for Montreal's island.